Alaska Airmen Association Web Cam

You are listening to:
PALH Tower - Anchorage, Alaska, United States

PALH 262053Z 34005KT 10SM CLR 01/M12 A2976 RMK AO2 SLP078 T00111122 53004
To view the Flash MP3 Player please update your Flash Player.
Alaska Airmen's Association Web Cam LIVE
Lake Hood Live Image
 

UPCOMING EVENTS